Spring's Hourly Summary for Tuesday, July 10, 2018
Hour Temp
(f)
RH
(%)
Solar Rad.
(MJ/m2)
Rainfall
(in)
Wind
(mph)
7/10/2018 12:00 AM 76 92 0 0 0.09
7/10/2018 1:00 AM 75 92 0 0 0.01
7/10/2018 2:00 AM 75 92 0 0 0.01
7/10/2018 3:00 AM 74 94 0 0 0
7/10/2018 4:00 AM 74 95 0 0 0
7/10/2018 5:00 AM 73 96 0 0 0
7/10/2018 6:00 AM 73 97 0 0 0
7/10/2018 7:00 AM 73 97 0.02 0 0
7/10/2018 8:00 AM 74 90 0.4 0 0.01
7/10/2018 9:00 AM 80 75 1.06 0 0.35
7/10/2018 10:00 AM 83 70 1.82 0 1.76
7/10/2018 11:00 AM 85 63 2 0 2.13
7/10/2018 12:00 PM 86 54 2.01 0 2.02
7/10/2018 1:00 PM 88 50 3.25 0 2.69
7/10/2018 2:00 PM 89 48 2.54 0 2.6
7/10/2018 3:00 PM 90 45 2.65 0 2.87
7/10/2018 4:00 PM 91 43 2.47 0 2.79
7/10/2018 5:00 PM 92 42 1.97 0 3.11
7/10/2018 6:00 PM 88 54 0.75 0 4.6
7/10/2018 7:00 PM 89 50 1.12 0 3.53
7/10/2018 8:00 PM 89 51 0.47 0 3.21
7/10/2018 9:00 PM 87 55 0.04 0 2.88
7/10/2018 10:00 PM 85 62 0 0 3.17
7/10/2018 11:00 PM 83 67 0 0 3.48
Data Summary 82 69 22.57 0.00 1.72